Time;durP1;ratioP1;P1;durP2;ratioP2;P2;SDS_P1;SDS_P2;PMS_P1;PMS_P2;Temp;Humidity;BMP_temperature;BMP_pressure;BME280_temperature;BME280_humidity;BME280_pressure;Samples;Min_cycle;Max_cycle;Signal;HPM_P1;HPM_P2
2022/06/07 00:01:12;;;;;;;36.47;9.68;;;;;;;;;;6338720;22;20022;-68
2022/06/07 00:03:37;;;;;;;57.53;9.90;;;;;;;;;;6338967;22;20060;-68
2022/06/07 00:06:03;;;;;;;49.65;9.93;;;;;;;;;;6339238;22;20003;-68
2022/06/07 00:08:31;;;;;;;38.30;9.65;;;;;;;;;;6338731;22;20081;-69
2022/06/07 00:10:56;;;;;;;67.50;10.25;;;;;;;;;;6339260;22;20010;-68
2022/06/07 00:13:21;;;;;;;44.03;9.68;;;;;;;;;;6338538;22;20059;-68
2022/06/07 00:15:46;;;;;;;38.20;11.50;;;;;;;;;;6339096;22;20015;-68
2022/06/07 00:18:12;;;;;;;47.05;11.10;;;;;;;;;;6338340;22;20014;-69
2022/06/07 00:20:38;;;;;;;48.22;11.60;;;;;;;;;;6339003;22;20002;-68
2022/06/07 00:23:07;;;;;;;50.95;11.77;;;;;;;;;;6338682;22;19991;-69
2022/06/07 00:25:33;;;;;;;49.65;12.50;;;;;;;;;;6339265;22;20009;-68
2022/06/07 00:27:58;;;;;;;40.33;10.82;;;;;;;;;;6338669;22;20073;-68
2022/06/07 00:30:24;;;;;;;36.40;12.25;;;;;;;;;;6338630;22;20001;-69
2022/06/07 00:32:49;;;;;;;32.60;11.40;;;;;;;;;;6338484;22;20011;-68
2022/06/07 00:35:15;;;;;;;33.17;11.70;;;;;;;;;;6338920;22;20007;-68
2022/06/07 00:37:40;;;;;;;31.48;10.75;;;;;;;;;;6338940;22;20011;-69
2022/06/07 00:40:06;;;;;;;30.05;10.50;;;;;;;;;;6338799;22;20049;-68
2022/06/07 00:42:31;;;;;;;27.10;10.57;;;;;;;;;;6338459;22;20000;-68
2022/06/07 00:44:56;;;;;;;25.65;9.57;;;;;;;;;;6338264;22;20022;-68
2022/06/07 00:47:23;;;;;;;25.02;10.32;;;;;;;;;;6338627;22;20010;-68
2022/06/07 00:49:48;;;;;;;30.75;10.05;;;;;;;;;;6338562;22;20006;-68
2022/06/07 00:52:14;;;;;;;28.48;9.30;;;;;;;;;;6338876;22;19995;-69
2022/06/07 00:54:40;;;;;;;25.90;10.18;;;;;;;;;;6338514;22;20002;-68
2022/06/07 00:57:06;;;;;;;31.20;10.60;;;;;;;;;;6338757;22;20056;-68
2022/06/07 00:59:31;;;;;;;26.58;10.07;;;;;;;;;;6338555;22;20003;-68
2022/06/07 01:01:56;;;;;;;23.90;9.63;;;;;;;;;;6337662;22;20003;-69
2022/06/07 01:04:23;;;;;;;25.52;9.32;;;;;;;;;;6338080;22;20006;-68
2022/06/07 01:12:16;;;;;;;20.83;8.60;;;;;;;;;;6340224;22;20017;-69
2022/06/07 01:14:41;;;;;;;15.32;8.02;;;;;;;;;;6340197;22;20011;-69
2022/06/07 01:17:07;;;;;;;18.83;8.60;;;;;;;;;;6340043;22;20026;-69
2022/06/07 01:19:32;;;;;;;19.17;8.65;;;;;;;;;;6340313;22;20292;-68
2022/06/07 01:21:57;;;;;;;17.20;9.05;;;;;;;;;;6340155;22;20077;-68
2022/06/07 01:24:22;;;;;;;17.67;8.30;;;;;;;;;;6340232;22;20006;-69
2022/06/07 01:26:48;;;;;;;24.40;7.90;;;;;;;;;;6340602;22;20414;-68
2022/06/07 01:29:14;;;;;;;49.08;8.18;;;;;;;;;;6340125;22;20315;-68
2022/06/07 01:31:40;;;;;;;18.98;7.57;;;;;;;;;;6340460;22;20013;-68
2022/06/07 01:34:05;;;;;;;22.33;6.90;;;;;;;;;;6340318;22;20363;-69
2022/06/07 01:36:31;;;;;;;15.57;6.78;;;;;;;;;;6340443;22;20041;-69
2022/06/07 01:41:55;;;;;;;60.58;6.82;;;;;;;;;;6339831;22;20024;-68
2022/06/07 01:44:24;;;;;;;45.78;8.48;;;;;;;;;;6312604;22;20003;-69
2022/06/07 01:46:50;;;;;;;30.92;6.82;;;;;;;;;;6340175;22;19994;-69
2022/06/07 01:49:16;;;;;;;16.60;6.45;;;;;;;;;;6340097;22;20014;-68
2022/06/07 01:51:42;;;;;;;28.92;6.60;;;;;;;;;;6340171;22;20005;-68
2022/06/07 01:54:07;;;;;;;86.45;10.63;;;;;;;;;;6339848;22;20422;-68
2022/06/07 01:56:34;;;;;;;51.75;6.68;;;;;;;;;;6339995;22;20427;-68
2022/06/07 01:58:59;;;;;;;11.07;5.45;;;;;;;;;;6340029;22;20085;-68
2022/06/07 02:01:25;;;;;;;11.55;5.47;;;;;;;;;;6339653;22;20027;-69
2022/06/07 02:03:50;;;;;;;14.98;5.78;;;;;;;;;;6339683;22;20014;-68
2022/06/07 02:06:15;;;;;;;27.13;6.65;;;;;;;;;;6339916;22;20005;-69
2022/06/07 02:08:41;;;;;;;11.05;4.93;;;;;;;;;;6340074;22;20022;-68
2022/06/07 02:11:10;;;;;;;14.40;5.45;;;;;;;;;;6340065;22;20418;-69
2022/06/07 02:13:36;;;;;;;12.25;5.88;;;;;;;;;;6339925;22;19991;-68
2022/06/07 02:16:02;;;;;;;12.07;5.30;;;;;;;;;;6340278;22;20036;-69
2022/06/07 02:18:27;;;;;;;11.00;5.40;;;;;;;;;;6339347;22;20010;-69
2022/06/07 02:20:54;;;;;;;36.15;5.93;;;;;;;;;;6340013;22;20330;-68
2022/06/07 02:23:19;;;;;;;49.72;4.88;;;;;;;;;;6339698;22;20020;-68
2022/06/07 02:25:51;;;;;;;64.28;7.07;;;;;;;;;;6339990;22;20438;-68
2022/06/07 02:28:17;;;;;;;25.58;4.50;;;;;;;;;;6339715;22;20086;-68
2022/06/07 02:30:43;;;;;;;12.55;4.70;;;;;;;;;;6339768;22;20364;-68
2022/06/07 02:33:09;;;;;;;37.75;6.97;;;;;;;;;;6338923;22;20009;-69
2022/06/07 02:35:34;;;;;;;7.95;4.80;;;;;;;;;;6324913;22;19995;-68
2022/06/07 02:38:00;;;;;;;8.40;4.45;;;;;;;;;;6338315;22;20014;-68
2022/06/07 02:40:26;;;;;;;9.23;4.72;;;;;;;;;;6338016;22;20006;-68
2022/06/07 02:42:51;;;;;;;7.97;3.97;;;;;;;;;;6339278;22;19999;-68
2022/06/07 02:45:16;;;;;;;10.00;4.10;;;;;;;;;;6311997;22;20398;-68
2022/06/07 02:47:43;;;;;;;6.07;3.83;;;;;;;;;;6339451;22;20426;-68
2022/06/07 02:50:09;;;;;;;8.73;4.40;;;;;;;;;;6339761;22;19991;-68
2022/06/07 02:52:35;;;;;;;67.30;6.18;;;;;;;;;;6339461;22;19991;-68
2022/06/07 02:55:00;;;;;;;40.45;4.90;;;;;;;;;;6339596;22;20011;-68
2022/06/07 02:57:27;;;;;;;88.55;8.55;;;;;;;;;;6339505;22;20006;-68
2022/06/07 02:59:52;;;;;;;48.75;4.25;;;;;;;;;;6339400;22;20009;-68
2022/06/07 03:02:18;;;;;;;33.10;4.45;;;;;;;;;;6339541;22;20007;-68
2022/06/07 03:04:43;;;;;;;8.38;3.85;;;;;;;;;;6339515;22;20357;-68
2022/06/07 03:07:08;;;;;;;48.15;3.47;;;;;;;;;;6339464;22;20714;-68
2022/06/07 03:09:33;;;;;;;33.42;4.50;;;;;;;;;;6339426;22;20030;-68
2022/06/07 03:11:59;;;;;;;15.52;3.80;;;;;;;;;;6339457;22;19991;-68
2022/06/07 03:14:24;;;;;;;7.30;4.03;;;;;;;;;;6339425;22;20003;-68
2022/06/07 03:16:50;;;;;;;10.55;4.00;;;;;;;;;;6339419;22;20052;-68
2022/06/07 03:19:15;;;;;;;6.78;3.53;;;;;;;;;;6339128;22;20010;-68
2022/06/07 03:21:40;;;;;;;8.80;3.70;;;;;;;;;;6339364;22;20001;-68
2022/06/07 03:24:06;;;;;;;6.07;3.50;;;;;;;;;;6339062;22;20438;-68
2022/06/07 03:26:32;;;;;;;5.22;3.17;;;;;;;;;;6339522;22;20017;-68
2022/06/07 03:28:57;;;;;;;5.30;3.13;;;;;;;;;;6338767;22;20071;-68
2022/06/07 03:31:22;;;;;;;8.32;3.55;;;;;;;;;;6339383;22;19999;-68
2022/06/07 03:33:48;;;;;;;65.07;4.40;;;;;;;;;;6339220;22;19999;-68
2022/06/07 03:36:17;;;;;;;8.10;3.15;;;;;;;;;;6339243;22;20471;-68
2022/06/07 03:38:42;;;;;;;8.30;3.83;;;;;;;;;;6339188;22;20021;-68
2022/06/07 03:41:08;;;;;;;5.80;3.22;;;;;;;;;;6339316;22;20066;-68
2022/06/07 03:43:34;;;;;;;5.10;3.20;;;;;;;;;;6339116;22;20036;-68
2022/06/07 03:46:06;;;;;;;5.07;3.08;;;;;;;;;;6338761;22;20010;-68
2022/06/07 03:48:32;;;;;;;20.48;3.10;;;;;;;;;;6339123;22;20479;-68
2022/06/07 03:50:57;;;;;;;8.57;3.13;;;;;;;;;;6339329;22;19990;-68
2022/06/07 03:53:23;;;;;;;5.72;2.90;;;;;;;;;;6338818;22;20025;-68
2022/06/07 03:55:48;;;;;;;7.30;2.90;;;;;;;;;;6338768;22;19994;-68
2022/06/07 03:58:14;;;;;;;17.77;2.80;;;;;;;;;;6339114;22;20082;-68
2022/06/07 04:00:39;;;;;;;37.72;3.35;;;;;;;;;;6339217;22;20025;-68
2022/06/07 04:03:04;;;;;;;26.00;4.22;;;;;;;;;;6338737;22;20075;-68
2022/06/07 04:05:30;;;;;;;8.13;3.28;;;;;;;;;;6339049;22;19997;-68
2022/06/07 04:08:10;;;;;;;7.63;2.85;;;;;;;;;;6338898;22;20370;-68
2022/06/07 04:10:35;;;;;;;9.15;2.92;;;;;;;;;;6338977;22;20120;-68
2022/06/07 04:13:01;;;;;;;10.02;2.95;;;;;;;;;;6339179;22;20030;-68
2022/06/07 04:15:26;;;;;;;13.65;3.08;;;;;;;;;;6338808;22;19991;-68
2022/06/07 04:17:53;;;;;;;8.00;2.70;;;;;;;;;;6338749;22;19991;-68
2022/06/07 04:20:18;;;;;;;16.85;2.55;;;;;;;;;;6338924;22;20037;-68
2022/06/07 04:22:43;;;;;;;5.95;2.50;;;;;;;;;;6338538;22;19991;-68
2022/06/07 04:25:09;;;;;;;6.80;2.38;;;;;;;;;;6338934;22;19997;-68
2022/06/07 04:27:34;;;;;;;7.82;2.58;;;;;;;;;;6338866;22;20312;-68
2022/06/07 04:29:59;;;;;;;4.28;2.47;;;;;;;;;;6339110;22;20069;-68
2022/06/07 04:32:24;;;;;;;3.92;2.38;;;;;;;;;;6338722;22;20002;-68
2022/06/07 04:34:50;;;;;;;4.18;2.40;;;;;;;;;;6338878;22;20494;-68
2022/06/07 04:37:17;;;;;;;6.68;2.50;;;;;;;;;;6338624;22;19991;-68
2022/06/07 04:39:43;;;;;;;4.57;2.22;;;;;;;;;;6338467;22;20089;-68
2022/06/07 04:42:08;;;;;;;3.55;2.17;;;;;;;;;;6338366;22;20003;-68
2022/06/07 04:44:33;;;;;;;4.35;2.22;;;;;;;;;;6338819;22;19991;-68
2022/06/07 04:46:58;;;;;;;3.10;1.98;;;;;;;;;;6338868;22;20052;-68
2022/06/07 04:49:25;;;;;;;3.65;2.50;;;;;;;;;;6338769;22;20078;-68
2022/06/07 04:51:51;;;;;;;3.30;2.28;;;;;;;;;;6338556;22;20441;-68
2022/06/07 04:54:16;;;;;;;5.65;2.40;;;;;;;;;;6338694;22;20018;-68
2022/06/07 04:56:41;;;;;;;4.80;2.50;;;;;;;;;;6338711;22;20007;-68
2022/06/07 04:59:07;;;;;;;4.28;2.50;;;;;;;;;;6338262;22;20003;-69
2022/06/07 05:01:33;;;;;;;3.65;2.40;;;;;;;;;;6338247;22;19998;-68
2022/06/07 05:03:59;;;;;;;4.95;2.60;;;;;;;;;;6338853;22;20007;-68
2022/06/07 05:06:29;;;;;;;4.55;2.55;;;;;;;;;;6338399;22;20217;-68
2022/06/07 05:08:56;;;;;;;4.15;2.50;;;;;;;;;;6338834;22;20074;-68
2022/06/07 05:11:21;;;;;;;5.43;2.70;;;;;;;;;;6338527;22;20318;-69
2022/06/07 05:13:46;;;;;;;3.88;2.67;;;;;;;;;;6311189;22;20001;-68
2022/06/07 05:16:12;;;;;;;9.20;3.10;;;;;;;;;;6338744;22;20536;-68
2022/06/07 05:18:37;;;;;;;3.67;2.40;;;;;;;;;;6338600;22;20022;-68
2022/06/07 05:21:06;;;;;;;6.47;2.75;;;;;;;;;;6338717;22;20425;-68
2022/06/07 05:23:32;;;;;;;4.63;2.85;;;;;;;;;;6338513;22;19995;-68
2022/06/07 05:26:06;;;;;;;9.30;3.20;;;;;;;;;;6338653;22;20487;-68
2022/06/07 05:28:32;;;;;;;7.80;2.95;;;;;;;;;;6338385;22;20026;-68
2022/06/07 05:30:57;;;;;;;5.38;2.80;;;;;;;;;;6338590;22;19998;-68
2022/06/07 05:33:22;;;;;;;4.10;2.30;;;;;;;;;;6338603;22;20095;-68
2022/06/07 05:35:48;;;;;;;3.63;2.30;;;;;;;;;;6332485;22;20040;-69
2022/06/07 05:38:14;;;;;;;4.85;2.90;;;;;;;;;;6328615;22;20425;-69
2022/06/07 05:40:39;;;;;;;6.03;2.50;;;;;;;;;;6337275;22;20003;-68
2022/06/07 05:43:05;;;;;;;5.40;3.08;;;;;;;;;;6337014;22;20001;-69
2022/06/07 05:45:33;;;;;;;7.47;3.38;;;;;;;;;;6337623;22;20110;-68
2022/06/07 05:47:58;;;;;;;4.03;2.80;;;;;;;;;;6338602;22;20003;-68
2022/06/07 05:50:25;;;;;;;7.78;2.92;;;;;;;;;;6337910;22;20104;-69
2022/06/07 05:52:50;;;;;;;6.00;3.22;;;;;;;;;;6339385;22;20017;-68
2022/06/07 05:55:15;;;;;;;9.63;3.28;;;;;;;;;;6339966;22;20081;-68
2022/06/07 05:57:44;;;;;;;5.70;2.95;;;;;;;;;;6340009;22;19994;-68
2022/06/07 06:00:10;;;;;;;7.60;3.25;;;;;;;;;;6339725;22;20018;-68
2022/06/07 06:02:35;;;;;;;5.35;3.45;;;;;;;;;;6340534;22;20010;-69
2022/06/07 06:05:00;;;;;;;7.82;3.65;;;;;;;;;;6340232;22;19991;-68
2022/06/07 06:07:25;;;;;;;7.05;3.60;;;;;;;;;;6339897;22;20010;-69
2022/06/07 06:12:35;;;;;;;9.05;3.83;;;;;;;;;;6339623;22;20010;-69
2022/06/07 06:15:00;;;;;;;7.30;3.88;;;;;;;;;;6340502;22;20007;-69
2022/06/07 06:17:25;;;;;;;9.27;4.53;;;;;;;;;;6340139;22;19991;-69
2022/06/07 06:19:50;;;;;;;9.93;4.45;;;;;;;;;;6340176;22;20033;-68
2022/06/07 06:22:16;;;;;;;8.35;4.32;;;;;;;;;;6339784;22;20002;-69
2022/06/07 06:24:41;;;;;;;7.07;3.67;;;;;;;;;;6340072;22;19992;-68
2022/06/07 06:27:06;;;;;;;9.68;4.13;;;;;;;;;;6340001;22;19998;-69
2022/06/07 06:29:32;;;;;;;12.18;4.28;;;;;;;;;;6340429;22;20023;-69
2022/06/07 06:31:57;;;;;;;9.93;4.35;;;;;;;;;;6312530;22;20479;-69
2022/06/07 06:34:23;;;;;;;8.73;3.92;;;;;;;;;;6339992;22;20406;-69
2022/06/07 06:36:49;;;;;;;12.68;5.35;;;;;;;;;;6339887;22;20014;-69
2022/06/07 06:39:14;;;;;;;11.38;5.55;;;;;;;;;;6340075;22;20052;-69
2022/06/07 06:41:45;;;;;;;9.50;5.00;;;;;;;;;;6339464;22;19994;-69
2022/06/07 06:44:11;;;;;;;9.75;5.10;;;;;;;;;;6339776;22;20383;-69
2022/06/07 06:46:40;;;;;;;13.40;6.13;;;;;;;;;;6339688;22;20002;-68
2022/06/07 06:49:06;;;;;;;8.18;4.55;;;;;;;;;;6339652;22;20025;-69
2022/06/07 06:51:31;;;;;;;11.32;6.15;;;;;;;;;;6339691;22;20003;-69
2022/06/07 06:53:58;;;;;;;12.80;6.65;;;;;;;;;;6339099;22;19998;-68
2022/06/07 06:56:23;;;;;;;15.43;7.75;;;;;;;;;;6339770;22;20005;-69
2022/06/07 06:58:50;;;;;;;13.50;7.72;;;;;;;;;;6339347;22;20334;-68
2022/06/07 07:01:16;;;;;;;14.02;7.82;;;;;;;;;;6337483;22;19993;-69
2022/06/07 07:03:42;;;;;;;17.70;9.70;;;;;;;;;;6338902;22;20370;-69
2022/06/07 07:06:09;;;;;;;18.17;9.13;;;;;;;;;;6339924;22;20007;-69
2022/06/07 07:08:35;;;;;;;16.75;8.75;;;;;;;;;;6339553;22;20004;-69
2022/06/07 07:11:03;;;;;;;23.10;8.25;;;;;;;;;;6339228;22;20095;-69
2022/06/07 07:13:30;;;;;;;15.55;8.13;;;;;;;;;;6339353;22;20300;-68
2022/06/07 07:15:55;;;;;;;17.40;8.45;;;;;;;;;;6339371;22;20341;-68
2022/06/07 07:18:20;;;;;;;17.98;10.18;;;;;;;;;;6338717;22;20051;-69
2022/06/07 07:20:45;;;;;;;21.55;12.68;;;;;;;;;;6339555;22;20326;-69
2022/06/07 07:23:10;;;;;;;27.65;14.93;;;;;;;;;;6339054;22;20373;-69
2022/06/07 07:25:36;;;;;;;26.98;13.43;;;;;;;;;;6339385;22;19991;-69
2022/06/07 07:28:01;;;;;;;23.13;12.73;;;;;;;;;;6339322;22;20003;-68
2022/06/07 07:30:26;;;;;;;24.17;13.25;;;;;;;;;;6325535;22;20022;-69
2022/06/07 07:32:51;;;;;;;22.02;13.10;;;;;;;;;;6338382;22;19991;-68
2022/06/07 07:35:18;;;;;;;21.30;12.73;;;;;;;;;;6338553;22;20010;-68
2022/06/07 07:37:43;;;;;;;25.00;13.30;;;;;;;;;;6338712;22;20007;-69
2022/06/07 07:40:09;;;;;;;21.23;12.30;;;;;;;;;;6338791;22;20425;-69
2022/06/07 07:42:34;;;;;;;25.50;12.80;;;;;;;;;;6338885;22;20014;-69
2022/06/07 07:45:00;;;;;;;23.00;13.48;;;;;;;;;;6339064;22;20420;-69
2022/06/07 07:47:25;;;;;;;23.33;13.38;;;;;;;;;;6330504;22;20069;-69
2022/06/07 07:49:50;;;;;;;24.05;13.27;;;;;;;;;;6338750;22;20011;-69
2022/06/07 07:52:19;;;;;;;24.25;13.10;;;;;;;;;;6338330;22;19991;-69
2022/06/07 07:54:44;;;;;;;19.80;12.00;;;;;;;;;;6337461;22;20361;-68
2022/06/07 07:57:10;;;;;;;22.08;12.85;;;;;;;;;;6338272;22;20002;-69
2022/06/07 07:59:35;;;;;;;22.85;12.93;;;;;;;;;;6338507;22;20064;-69
2022/06/07 08:02:00;;;;;;;23.42;13.05;;;;;;;;;;6336758;22;20479;-69
2022/06/07 08:04:26;;;;;;;23.00;12.15;;;;;;;;;;6337934;22;20645;-69
2022/06/07 08:06:51;;;;;;;20.85;12.73;;;;;;;;;;6337856;22;20021;-69
2022/06/07 08:09:17;;;;;;;25.25;14.20;;;;;;;;;;6337569;22;20052;-69
2022/06/07 08:11:42;;;;;;;23.13;13.13;;;;;;;;;;6338299;22;20006;-69
2022/06/07 08:14:10;;;;;;;24.35;13.07;;;;;;;;;;6338214;22;20390;-69
2022/06/07 08:16:36;;;;;;;24.42;12.95;;;;;;;;;;6337772;22;19991;-69
2022/06/07 08:19:02;;;;;;;19.55;11.90;;;;;;;;;;6336795;22;20019;-69
2022/06/07 08:21:27;;;;;;;23.10;12.60;;;;;;;;;;6337807;22;19990;-69
2022/06/07 08:23:54;;;;;;;24.23;12.13;;;;;;;;;;6338272;22;20040;-69
2022/06/07 08:26:20;;;;;;;20.98;12.10;;;;;;;;;;6338411;22;20007;-70
2022/06/07 08:28:45;;;;;;;22.33;12.68;;;;;;;;;;6338734;22;20359;-69
2022/06/07 08:31:15;;;;;;;19.30;11.98;;;;;;;;;;6338413;22;20437;-69
2022/06/07 08:39:08;;;;;;;15.30;10.38;;;;;;;;;;6234889;23;20486;-69
2022/06/07 08:41:56;;;;;;;16.85;9.52;;;;;;;;;;6241948;23;20000;-70
2022/06/07 08:44:26;;;;;;;20.45;10.15;;;;;;;;;;6225323;23;20317;-69
2022/06/07 08:46:53;;;;;;;19.83;11.23;;;;;;;;;;6242040;23;19996;-70
2022/06/07 08:49:18;;;;;;;17.02;11.73;;;;;;;;;;6242095;23;20014;-70
2022/06/07 08:51:59;;;;;;;17.27;10.57;;;;;;;;;;6234697;23;20091;-70
2022/06/07 08:54:25;;;;;;;17.83;10.35;;;;;;;;;;6238614;23;20018;-71
2022/06/07 08:56:51;;;;;;;16.52;10.40;;;;;;;;;;6234439;23;20004;-69
2022/06/07 08:59:19;;;;;;;17.13;10.57;;;;;;;;;;6240648;23;20443;-69
2022/06/07 09:02:04;;;;;;;14.57;9.48;;;;;;;;;;6240670;23;19989;-70
2022/06/07 09:04:30;;;;;;;17.00;10.40;;;;;;;;;;6236993;23;20024;-70
2022/06/07 09:06:57;;;;;;;17.60;9.70;;;;;;;;;;6238916;23;20020;-70
2022/06/07 09:12:09;;;;;;;14.80;9.50;;;;;;;;;;6241166;23;20000;-70
2022/06/07 09:12:14;;;;;;;12.75;9.20;;;;;;;;;;6239550;23;20915;-71
2022/06/07 09:14:55;;;;;;;13.90;9.20;;;;;;;;;;6240938;23;20094;-71
2022/06/07 09:17:28;;;;;;;11.27;8.23;;;;;;;;;;6242472;23;20001;-71
2022/06/07 09:19:54;;;;;;;15.30;9.75;;;;;;;;;;6242020;23;20016;-71
2022/06/07 09:22:23;;;;;;;12.00;8.63;;;;;;;;;;6241720;23;20028;-71
2022/06/07 09:24:53;;;;;;;10.23;8.32;;;;;;;;;;6241707;23;19999;-71
2022/06/07 09:27:20;;;;;;;14.18;7.78;;;;;;;;;;6242379;23;20394;-71
2022/06/07 09:29:56;;;;;;;11.05;8.07;;;;;;;;;;6243569;23;20039;-71
2022/06/07 09:32:23;;;;;;;9.75;7.22;;;;;;;;;;6243310;23;20003;-71
2022/06/07 09:34:59;;;;;;;12.38;8.20;;;;;;;;;;6243190;23;20015;-71
2022/06/07 09:37:37;;;;;;;11.77;8.40;;;;;;;;;;6242998;23;20079;-71
2022/06/07 09:40:22;;;;;;;10.05;7.53;;;;;;;;;;6244272;23;20008;-70
2022/06/07 09:42:53;;;;;;;10.25;7.85;;;;;;;;;;6241614;23;20423;-71
2022/06/07 09:45:20;;;;;;;12.40;7.70;;;;;;;;;;6243337;23;20340;-71
2022/06/07 09:47:46;;;;;;;14.73;9.48;;;;;;;;;;6242435;23;20321;-71
2022/06/07 09:50:18;;;;;;;12.53;8.43;;;;;;;;;;6243125;23;20050;-71
2022/06/07 09:52:46;;;;;;;10.50;8.38;;;;;;;;;;6239079;23;20256;-71
2022/06/07 09:55:21;;;;;;;11.75;8.18;;;;;;;;;;6242471;23;20003;-71
2022/06/07 09:58:05;;;;;;;10.90;8.40;;;;;;;;;;6243141;23;20028;-71
2022/06/07 10:00:40;;;;;;;11.75;8.23;;;;;;;;;;6240381;23;19996;-71
2022/06/07 10:03:17;;;;;;;11.25;8.15;;;;;;;;;;6241412;23;20008;-71
2022/06/07 10:05:54;;;;;;;10.63;7.88;;;;;;;;;;6244079;23;19988;-71
2022/06/07 10:08:35;;;;;;;12.55;8.32;;;;;;;;;;6243298;23;20007;-71
2022/06/07 10:11:35;;;;;;;13.18;8.98;;;;;;;;;;6242882;23;20020;-71
2022/06/07 10:14:15;;;;;;;12.43;7.88;;;;;;;;;;6120283;23;20482;-71
2022/06/07 10:16:58;;;;;;;11.27;8.57;;;;;;;;;;6229342;23;20039;-71
2022/06/07 10:19:45;;;;;;;11.75;7.55;;;;;;;;;;6243202;23;20008;-71
2022/06/07 10:22:10;;;;;;;11.55;7.03;;;;;;;;;;6242243;23;20063;-71
2022/06/07 10:24:35;;;;;;;12.03;8.60;;;;;;;;;;6242146;23;20035;-71
2022/06/07 10:27:11;;;;;;;11.20;8.38;;;;;;;;;;6239335;23;20209;-71
2022/06/07 10:29:52;;;;;;;11.32;8.25;;;;;;;;;;6241343;23;20011;-70
2022/06/07 10:32:27;;;;;;;11.57;8.60;;;;;;;;;;6241640;23;20000;-71
2022/06/07 10:35:00;;;;;;;13.77;8.80;;;;;;;;;;6241458;23;19992;-70
2022/06/07 10:37:25;;;;;;;11.13;7.50;;;;;;;;;;6242388;23;20019;-70
2022/06/07 10:40:14;;;;;;;11.95;7.18;;;;;;;;;;6242281;23;20012;-71
2022/06/07 10:42:40;;;;;;;12.15;8.05;;;;;;;;;;6225653;23;20036;-71
2022/06/07 10:45:11;;;;;;;15.52;8.52;;;;;;;;;;6243306;23;20039;-71
2022/06/07 10:47:36;;;;;;;14.95;8.63;;;;;;;;;;6243439;23;19992;-71
2022/06/07 10:50:17;;;;;;;12.57;8.40;;;;;;;;;;6243108;23;20000;-70
2022/06/07 10:52:45;;;;;;;13.98;8.85;;;;;;;;;;6242639;23;20008;-70
2022/06/07 10:55:43;;;;;;;10.32;7.40;;;;;;;;;;6241785;23;20000;-71
2022/06/07 10:58:08;;;;;;;9.57;6.30;;;;;;;;;;6175404;23;20004;-70
2022/06/07 11:00:49;;;;;;;7.37;4.77;;;;;;;;;;6242404;23;20053;-70
2022/06/07 11:03:26;;;;;;;5.47;2.95;;;;;;;;;;6242052;23;20233;-70
2022/06/07 11:11:26;;;;;;;8.40;4.45;;;;;;;;;;6246251;23;20023;-71
2022/06/07 11:13:57;;;;;;;8.30;5.32;;;;;;;;;;6246887;23;20324;-71
2022/06/07 11:16:41;;;;;;;9.70;5.22;;;;;;;;;;6245420;23;20007;-71
2022/06/07 11:19:08;;;;;;;8.43;4.50;;;;;;;;;;6245412;23;20095;-71
2022/06/07 11:21:35;;;;;;;6.43;4.00;;;;;;;;;;6245111;23;20008;-70
2022/06/07 11:24:18;;;;;;;7.70;4.00;;;;;;;;;;6219197;23;19997;-70
2022/06/07 11:26:43;;;;;;;;;;;;;;;;;;6246333;23;20007;-71
2022/06/07 11:29:09;;;;;;;5.37;3.60;;;;;;;;;;6246443;23;19939;-70
2022/06/07 11:31:43;;;;;;;5.78;4.20;;;;;;;;;;6246103;23;20007;-70
2022/06/07 11:34:25;;;;;;;8.98;3.80;;;;;;;;;;6225877;23;20004;-71
2022/06/07 11:36:55;;;;;;;7.40;4.78;;;;;;;;;;6241566;23;20076;-70
2022/06/07 11:39:27;;;;;;;9.10;4.82;;;;;;;;;;6243860;23;20019;-71
2022/06/07 11:42:13;;;;;;;6.32;3.60;;;;;;;;;;6245677;23;20004;-70
2022/06/07 11:44:58;;;;;;;5.70;3.33;;;;;;;;;;6223825;23;20008;-70
2022/06/07 11:47:26;;;;;;;4.93;3.20;;;;;;;;;;6218140;23;20379;-71
2022/06/07 11:49:51;;;;;;;6.63;3.15;;;;;;;;;;6245339;23;20004;-70
2022/06/07 11:52:26;;;;;;;7.37;3.20;;;;;;;;;;6243380;23;20049;-71
2022/06/07 11:54:56;;;;;;;5.55;2.70;;;;;;;;;;6244621;23;20695;-71
2022/06/07 11:57:27;;;;;;;5.53;2.80;;;;;;;;;;6245839;23;20416;-70
2022/06/07 11:59:55;;;;;;;5.22;2.85;;;;;;;;;;6245751;23;20020;-71
2022/06/07 12:02:22;;;;;;;8.57;3.70;;;;;;;;;;6244943;23;19992;-70
2022/06/07 12:04:48;;;;;;;7.78;3.25;;;;;;;;;;6245148;23;20013;-70
2022/06/07 12:07:29;;;;;;;5.65;2.50;;;;;;;;;;6245880;23;20004;-70
2022/06/07 12:09:56;;;;;;;4.78;2.13;;;;;;;;;;6246197;23;20344;-71
2022/06/07 12:12:31;;;;;;;8.02;2.40;;;;;;;;;;6245427;23;20309;-70
2022/06/07 12:15:03;;;;;;;6.65;2.80;;;;;;;;;;6246051;23;19992;-70
2022/06/07 12:17:29;;;;;;;7.60;3.50;;;;;;;;;;6245972;23;20004;-70
2022/06/07 12:19:55;;;;;;;4.90;2.80;;;;;;;;;;6241426;23;20004;-71
2022/06/07 12:22:23;;;;;;;3.75;2.38;;;;;;;;;;6244019;23;20338;-70
2022/06/07 12:24:59;;;;;;;6.55;2.75;;;;;;;;;;6245424;23;20008;-70
2022/06/07 12:27:24;;;;;;;7.95;3.85;;;;;;;;;;6245708;23;19996;-70
2022/06/07 12:29:50;;;;;;;7.00;4.45;;;;;;;;;;6246135;23;20012;-70
2022/06/07 12:32:21;;;;;;;6.35;3.80;;;;;;;;;;6245639;23;20000;-70
2022/06/07 12:34:46;;;;;;;7.65;3.40;;;;;;;;;;6245917;23;19992;-70
2022/06/07 12:37:12;;;;;;;8.45;3.80;;;;;;;;;;6243744;23;20015;-70
2022/06/07 12:39:42;;;;;;;6.95;3.28;;;;;;;;;;6245973;23;20023;-70
2022/06/07 12:42:12;;;;;;;7.50;3.53;;;;;;;;;;6244911;23;20003;-70
2022/06/07 12:44:42;;;;;;;7.07;4.45;;;;;;;;;;6243606;23;20008;-70
2022/06/07 12:47:19;;;;;;;9.10;4.32;;;;;;;;;;6237621;23;20050;-70
2022/06/07 12:49:46;;;;;;;8.50;4.85;;;;;;;;;;6244772;23;20050;-70
2022/06/07 12:52:19;;;;;;;9.45;5.30;;;;;;;;;;6245443;23;20079;-70
2022/06/07 12:54:49;;;;;;;7.25;4.38;;;;;;;;;;6241634;23;20086;-70
2022/06/07 12:57:20;;;;;;;7.55;4.65;;;;;;;;;;6244859;23;20011;-70
2022/06/07 12:59:52;;;;;;;7.80;4.47;;;;;;;;;;6240304;23;20027;-70
2022/06/07 13:02:32;;;;;;;7.38;4.40;;;;;;;;;;6246344;23;20004;-70
2022/06/07 13:04:58;;;;;;;7.50;3.67;;;;;;;;;;6247686;23;20005;-70
2022/06/07 13:07:24;;;;;;;6.68;3.80;;;;;;;;;;6246820;23;20090;-70
2022/06/07 13:10:04;;;;;;;5.45;3.30;;;;;;;;;;6246388;23;20004;-70
2022/06/07 13:12:31;;;;;;;4.72;2.92;;;;;;;;;;6247262;23;20011;-70
2022/06/07 13:14:57;;;;;;;4.50;1.90;;;;;;;;;;6247399;23;20435;-70
2022/06/07 13:17:36;;;;;;;3.70;2.08;;;;;;;;;;6245488;23;20350;-70
2022/06/07 13:20:04;;;;;;;3.88;2.15;;;;;;;;;;6247017;23;20012;-69
2022/06/07 13:22:36;;;;;;;5.22;2.55;;;;;;;;;;6240638;23;20030;-70
2022/06/07 13:25:16;;;;;;;4.25;2.28;;;;;;;;;;6244992;23;20008;-69
2022/06/07 13:27:50;;;;;;;4.43;3.05;;;;;;;;;;6246514;23;20000;-70
2022/06/07 13:30:21;;;;;;;4.82;2.72;;;;;;;;;;6246846;23;20004;-70
2022/06/07 13:32:58;;;;;;;7.43;3.42;;;;;;;;;;6246360;23;20420;-70
2022/06/07 13:35:29;;;;;;;5.95;2.88;;;;;;;;;;6246209;23;20008;-70
2022/06/07 13:37:58;;;;;;;9.88;3.10;;;;;;;;;;6246645;23;20019;-69
2022/06/07 13:40:25;;;;;;;3.95;1.95;;;;;;;;;;6246604;23;20012;-70
2022/06/07 13:43:17;;;;;;;4.72;2.03;;;;;;;;;;6246472;23;20031;-70
2022/06/07 13:45:46;;;;;;;3.28;2.10;;;;;;;;;;6239256;23;20030;-70
2022/06/07 13:48:15;;;;;;;2.85;1.70;;;;;;;;;;6246803;23;20079;-70
2022/06/07 13:53:43;;;;;;;4.32;1.85;;;;;;;;;;6198276;23;20043;-70
2022/06/07 13:56:14;;;;;;;3.83;1.50;;;;;;;;;;6244117;23;20103;-70
2022/06/07 13:58:40;;;;;;;5.22;1.55;;;;;;;;;;6246433;23;20008;-70
2022/06/07 14:01:20;;;;;;;4.57;1.70;;;;;;;;;;6246150;23;20012;-70
2022/06/07 14:03:47;;;;;;;5.07;2.10;;;;;;;;;;6245962;23;20058;-70
2022/06/07 14:06:24;;;;;;;4.63;2.30;;;;;;;;;;6245140;23;20004;-70
2022/06/07 14:08:50;;;;;;;4.80;2.30;;;;;;;;;;6246086;23;20061;-70
2022/06/07 14:11:15;;;;;;;7.93;2.70;;;;;;;;;;6246382;23;20007;-69
2022/06/07 14:13:40;;;;;;;4.22;2.33;;;;;;;;;;6245318;23;20392;-70
2022/06/07 14:16:06;;;;;;;4.38;2.20;;;;;;;;;;6246170;23;20031;-70
2022/06/07 14:18:32;;;;;;;4.70;2.28;;;;;;;;;;6245742;23;20366;-70
2022/06/07 14:20:57;;;;;;;5.03;3.28;;;;;;;;;;6246609;23;19996;-70
2022/06/07 14:23:22;;;;;;;5.93;2.97;;;;;;;;;;6245952;23;20000;-70
2022/06/07 14:25:48;;;;;;;5.65;2.60;;;;;;;;;;6244765;23;20031;-70
2022/06/07 14:28:21;;;;;;;4.88;2.63;;;;;;;;;;6246046;23;20359;-70
2022/06/07 14:30:47;;;;;;;5.65;2.95;;;;;;;;;;6246194;23;20083;-70
2022/06/07 14:33:13;;;;;;;5.22;3.10;;;;;;;;;;6246054;23;20325;-70
2022/06/07 14:35:38;;;;;;;6.20;3.20;;;;;;;;;;6232814;23;19992;-71
2022/06/07 14:38:05;;;;;;;8.65;3.47;;;;;;;;;;6244376;23;20317;-70
2022/06/07 14:40:32;;;;;;;4.57;2.92;;;;;;;;;;6242006;23;20496;-70
2022/06/07 14:42:57;;;;;;;4.97;2.60;;;;;;;;;;6240773;23;20050;-70
2022/06/07 14:45:25;;;;;;;3.50;2.10;;;;;;;;;;6244273;23;20001;-70
2022/06/07 14:47:54;;;;;;;4.13;2.50;;;;;;;;;;6244645;23;20039;-70
2022/06/07 14:50:20;;;;;;;4.72;3.20;;;;;;;;;;6245620;23;20003;-70
2022/06/07 14:52:47;;;;;;;6.95;4.03;;;;;;;;;;6234116;23;20317;-70
2022/06/07 14:55:14;;;;;;;7.47;4.45;;;;;;;;;;6242024;23;20004;-70
2022/06/07 14:57:42;;;;;;;7.47;4.35;;;;;;;;;;6241440;23;19996;-70
2022/06/07 15:00:08;;;;;;;9.02;5.32;;;;;;;;;;6242376;23;20012;-70
2022/06/07 15:02:36;;;;;;;7.78;4.63;;;;;;;;;;6242159;23;20010;-70
2022/06/07 15:05:01;;;;;;;6.80;4.65;;;;;;;;;;6242073;23;20034;-70
2022/06/07 15:07:27;;;;;;;6.33;4.63;;;;;;;;;;6238377;23;20004;-70